Aérodrome :
LOGIN :

S'inscrire | Disclaimer

   EN    FR    IT 

 










Légende :    VFR   VFR Marginal   IFR   IFR Intensif   IFR Très Intensif
Visi : 
Plafond : 
>= 8 km
>= 3000ft
5 à 8 km
1000 à 3000 ft
1500m à 5 km
500 à 1000 ft
800 à 1500m
200 à 500 ft
< 800m
< 200 ft
Symboles :   Orages  Brouillard  Fortes neiges  Fortes précipitations  Vent > 20 kt
SIGMETs :   Divers  Orages  Givrage  Turbulence  Onde Orograph.  Cendres Volcan.






- Altitude de l'aérodrome : 42 ft
- Code IATA : KGD


UMKK - Khrabrava - Kaliningrad

DERNIER METAR :
  • 290630Z 10003MPS CAVOK 10/08 Q1016 R24/95D NOSIG RMK QFE761/1015

METARs EXPIRÉS :
  • 290600Z 08002MPS CAVOK 08/07 Q1016 R24/CLRD95 NOSIG RMK QFE761/1015
  • 290530Z 11003MPS CAVOK 07/06 Q1016 R24/CLRD95 NOSIG RMK QFE761/1015
  • 290500Z 11003MPS CAVOK 06/05 Q1016 R24/CLRD95 NOSIG RMK QFE761/1015
  • 290430Z 13002MPS 9000 BCFG NSC 07/06 Q1016 R24/CLRD95 NOSIG RMK QFE761/1015
  • 290400Z 10001MPS 9000 2300E BR BCFG NSC 05/05 Q1016 R24/95D NOSIG RMK QFE761/1014

TAF TAF UMKK
Valide du 29 à 06h jusqu'au 30 à 06h UTC


290453Z 2906/3006 09003G08MPS 8000 SCT040
TEMPO 2906/2908 0400 PRFG FEW003
BECMG 2908/2910 05005G10MPS
TEMPO 2908/2910 SCT006
BECMG 2913/2915 08003G08MPS BKN020



MET'MAP, la Météo Aéronautique d'un coup d'oeil ! - Copyright ORBIFLY Décembre 2007 - Disclaimer

ORBIFLY MET'MAP TEAM :

Programmation & Développement : Alexandra Zaïnal
Sur une idée originale de : Baudouin d'Aumeries
Assistance à la programmation : Marc-Olivier Méhu
Soutien technique & logistique : Manuel Goepfert

Contact : metmap@orbifly.com




SOURCES & CREDITS :

   NOAA